sensor_id;sensor_type;location;lat;lon;timestamp;temperature;humidity
72320;SHT30;60269;52.502;16.732;2023-07-29T00:03:21;16.36;99.99
72320;SHT30;60269;52.502;16.732;2023-07-29T00:06:54;16.57;99.99
72320;SHT30;60269;52.502;16.732;2023-07-29T00:10:26;16.73;99.99
72320;SHT30;60269;52.502;16.732;2023-07-29T00:14:00;16.78;99.99
72320;SHT30;60269;52.502;16.732;2023-07-29T00:17:32;16.84;99.99
72320;SHT30;60269;52.502;16.732;2023-07-29T00:21:05;16.88;99.99
72320;SHT30;60269;52.502;16.732;2023-07-29T00:24:37;16.96;99.99
72320;SHT30;60269;52.502;16.732;2023-07-29T00:28:09;16.87;99.99
72320;SHT30;60269;52.502;16.732;2023-07-29T00:31:41;16.70;99.99
72320;SHT30;60269;52.502;16.732;2023-07-29T00:35:13;16.42;99.99
72320;SHT30;60269;52.502;16.732;2023-07-29T00:38:45;16.15;99.99
72320;SHT30;60269;52.502;16.732;2023-07-29T00:42:17;15.88;99.99
72320;SHT30;60269;52.502;16.732;2023-07-29T00:45:49;15.82;99.99
72320;SHT30;60269;52.502;16.732;2023-07-29T00:49:21;15.50;99.99
72320;SHT30;60269;52.502;16.732;2023-07-29T00:52:54;15.47;99.99
72320;SHT30;60269;52.502;16.732;2023-07-29T00:56:26;15.10;99.99
72320;SHT30;60269;52.502;16.732;2023-07-29T00:59:59;15.04;99.99
72320;SHT30;60269;52.502;16.732;2023-07-29T01:03:31;15.33;99.99
72320;SHT30;60269;52.502;16.732;2023-07-29T01:07:26;15.28;99.99
72320;SHT30;60269;52.502;16.732;2023-07-29T01:15:16;15.04;99.99
72320;SHT30;60269;52.502;16.732;2023-07-29T01:18:53;15.11;99.99
72320;SHT30;60269;52.502;16.732;2023-07-29T01:22:27;14.99;99.99
72320;SHT30;60269;52.502;16.732;2023-07-29T01:25:59;14.96;99.99
72320;SHT30;60269;52.502;16.732;2023-07-29T01:29:32;14.76;99.99
72320;SHT30;60269;52.502;16.732;2023-07-29T01:33:18;14.73;99.99
72320;SHT30;60269;52.502;16.732;2023-07-29T01:36:51;14.75;99.99
72320;SHT30;60269;52.502;16.732;2023-07-29T01:40:26;14.62;99.99
72320;SHT30;60269;52.502;16.732;2023-07-29T01:43:59;14.52;99.99
72320;SHT30;60269;52.502;16.732;2023-07-29T01:47:32;14.44;99.99
72320;SHT30;60269;52.502;16.732;2023-07-29T01:51:05;14.49;99.99
72320;SHT30;60269;52.502;16.732;2023-07-29T01:54:37;14.48;99.99
72320;SHT30;60269;52.502;16.732;2023-07-29T01:58:09;14.42;99.99
72320;SHT30;60269;52.502;16.732;2023-07-29T02:01:41;14.31;99.99
72320;SHT30;60269;52.502;16.732;2023-07-29T02:05:13;14.18;99.99
72320;SHT30;60269;52.502;16.732;2023-07-29T02:08:45;14.18;99.99
72320;SHT30;60269;52.502;16.732;2023-07-29T02:12:17;14.27;99.99
72320;SHT30;60269;52.502;16.732;2023-07-29T02:15:49;14.35;99.99
72320;SHT30;60269;52.502;16.732;2023-07-29T02:19:21;14.28;99.99
72320;SHT30;60269;52.502;16.732;2023-07-29T02:22:53;14.31;99.99
72320;SHT30;60269;52.502;16.732;2023-07-29T02:26:24;14.10;99.99
72320;SHT30;60269;52.502;16.732;2023-07-29T02:29:56;13.90;99.99
72320;SHT30;60269;52.502;16.732;2023-07-29T02:33:28;13.94;99.99
72320;SHT30;60269;52.502;16.732;2023-07-29T02:37:01;14.07;99.99
72320;SHT30;60269;52.502;16.732;2023-07-29T02:40:32;13.87;99.99
72320;SHT30;60269;52.502;16.732;2023-07-29T02:44:05;13.74;99.99
72320;SHT30;60269;52.502;16.732;2023-07-29T02:47:37;13.65;99.99
72320;SHT30;60269;52.502;16.732;2023-07-29T02:51:10;13.51;99.99
72320;SHT30;60269;52.502;16.732;2023-07-29T02:54:41;13.51;99.99
72320;SHT30;60269;52.502;16.732;2023-07-29T02:58:14;13.55;99.99
72320;SHT30;60269;52.502;16.732;2023-07-29T03:01:46;13.91;99.99
72320;SHT30;60269;52.502;16.732;2023-07-29T03:05:18;14.07;99.99
72320;SHT30;60269;52.502;16.732;2023-07-29T03:08:50;14.06;99.99
72320;SHT30;60269;52.502;16.732;2023-07-29T03:12:23;14.20;99.99
72320;SHT30;60269;52.502;16.732;2023-07-29T03:16:13;14.32;99.99
72320;SHT30;60269;52.502;16.732;2023-07-29T03:19:46;14.38;99.99
72320;SHT30;60269;52.502;16.732;2023-07-29T03:23:18;14.32;99.99
72320;SHT30;60269;52.502;16.732;2023-07-29T03:26:50;14.24;99.99
72320;SHT30;60269;52.502;16.732;2023-07-29T03:30:22;14.30;99.99
72320;SHT30;60269;52.502;16.732;2023-07-29T03:33:54;14.42;99.99
72320;SHT30;60269;52.502;16.732;2023-07-29T03:37:26;14.59;99.99
72320;SHT30;60269;52.502;16.732;2023-07-29T03:40:58;14.62;99.99
72320;SHT30;60269;52.502;16.732;2023-07-29T03:44:30;14.75;99.99
72320;SHT30;60269;52.502;16.732;2023-07-29T03:48:04;14.95;99.99
72320;SHT30;60269;52.502;16.732;2023-07-29T03:51:36;15.06;99.99
72320;SHT30;60269;52.502;16.732;2023-07-29T03:55:08;15.14;99.99
72320;SHT30;60269;52.502;16.732;2023-07-29T03:58:40;15.26;99.99
72320;SHT30;60269;52.502;16.732;2023-07-29T04:02:13;15.37;99.99
72320;SHT30;60269;52.502;16.732;2023-07-29T04:05:45;15.43;99.99
72320;SHT30;60269;52.502;16.732;2023-07-29T04:09:17;15.50;99.99
72320;SHT30;60269;52.502;16.732;2023-07-29T04:12:49;15.55;99.99
72320;SHT30;60269;52.502;16.732;2023-07-29T04:16:21;15.61;99.99
72320;SHT30;60269;52.502;16.732;2023-07-29T04:19:53;15.75;99.99
72320;SHT30;60269;52.502;16.732;2023-07-29T04:23:25;15.84;99.99
72320;SHT30;60269;52.502;16.732;2023-07-29T04:26:57;15.78;99.99
72320;SHT30;60269;52.502;16.732;2023-07-29T04:30:29;15.74;99.99
72320;SHT30;60269;52.502;16.732;2023-07-29T04:34:01;15.68;99.99
72320;SHT30;60269;52.502;16.732;2023-07-29T04:37:34;15.71;99.99
72320;SHT30;60269;52.502;16.732;2023-07-29T04:41:06;15.78;99.99
72320;SHT30;60269;52.502;16.732;2023-07-29T04:44:40;15.85;99.99
72320;SHT30;60269;52.502;16.732;2023-07-29T04:48:13;15.89;99.99
72320;SHT30;60269;52.502;16.732;2023-07-29T04:51:45;16.05;99.99
72320;SHT30;60269;52.502;16.732;2023-07-29T04:55:18;16.20;99.99
72320;SHT30;60269;52.502;16.732;2023-07-29T04:58:50;16.37;99.99
72320;SHT30;60269;52.502;16.732;2023-07-29T05:02:22;16.56;99.99
72320;SHT30;60269;52.502;16.732;2023-07-29T05:05:54;16.60;99.99
72320;SHT30;60269;52.502;16.732;2023-07-29T05:09:27;16.64;99.99
72320;SHT30;60269;52.502;16.732;2023-07-29T05:13:00;16.91;99.99
72320;SHT30;60269;52.502;16.732;2023-07-29T05:16:32;17.38;99.86
72320;SHT30;60269;52.502;16.732;2023-07-29T05:20:05;17.62;98.43
72320;SHT30;60269;52.502;16.732;2023-07-29T05:23:37;17.53;98.69
72320;SHT30;60269;52.502;16.732;2023-07-29T05:27:10;17.54;98.94
72320;SHT30;60269;52.502;16.732;2023-07-29T05:30:43;17.83;98.89
72320;SHT30;60269;52.502;16.732;2023-07-29T05:34:15;17.81;97.91
72320;SHT30;60269;52.502;16.732;2023-07-29T05:37:47;17.83;98.80
72320;SHT30;60269;52.502;16.732;2023-07-29T05:41:20;18.00;98.24
72320;SHT30;60269;52.502;16.732;2023-07-29T05:44:52;18.10;98.45
72320;SHT30;60269;52.502;16.732;2023-07-29T05:48:24;18.18;98.64
72320;SHT30;60269;52.502;16.732;2023-07-29T05:51:57;17.97;98.37
72320;SHT30;60269;52.502;16.732;2023-07-29T05:55:29;17.96;98.46
72320;SHT30;60269;52.502;16.732;2023-07-29T05:59:01;18.08;98.70
72320;SHT30;60269;52.502;16.732;2023-07-29T06:02:34;18.75;98.42
72320;SHT30;60269;52.502;16.732;2023-07-29T06:06:06;19.10;96.58
72320;SHT30;60269;52.502;16.732;2023-07-29T06:09:39;19.34;96.47
72320;SHT30;60269;52.502;16.732;2023-07-29T06:13:11;19.85;93.92
72320;SHT30;60269;52.502;16.732;2023-07-29T06:16:43;19.58;93.94
72320;SHT30;60269;52.502;16.732;2023-07-29T06:20:15;20.26;94.04
72320;SHT30;60269;52.502;16.732;2023-07-29T06:23:47;19.51;93.39
72320;SHT30;60269;52.502;16.732;2023-07-29T06:27:19;19.35;94.72
72320;SHT30;60269;52.502;16.732;2023-07-29T06:30:52;19.21;94.17
72320;SHT30;60269;52.502;16.732;2023-07-29T06:34:24;19.10;95.12
72320;SHT30;60269;52.502;16.732;2023-07-29T06:37:57;19.20;94.27
72320;SHT30;60269;52.502;16.732;2023-07-29T06:41:29;19.18;94.37
72320;SHT30;60269;52.502;16.732;2023-07-29T06:45:04;19.27;94.07
72320;SHT30;60269;52.502;16.732;2023-07-29T06:48:36;20.39;92.98
72320;SHT30;60269;52.502;16.732;2023-07-29T06:52:08;20.71;90.35
72320;SHT30;60269;52.502;16.732;2023-07-29T06:55:40;21.37;85.83
72320;SHT30;60269;52.502;16.732;2023-07-29T06:59:12;21.64;85.16
72320;SHT30;60269;52.502;16.732;2023-07-29T07:02:43;21.29;85.78
72320;SHT30;60269;52.502;16.732;2023-07-29T07:06:16;22.01;84.10
72320;SHT30;60269;52.502;16.732;2023-07-29T07:09:48;22.52;83.13
72320;SHT30;60269;52.502;16.732;2023-07-29T07:13:21;22.39;81.51
72320;SHT30;60269;52.502;16.732;2023-07-29T07:16:53;21.83;83.24
72320;SHT30;60269;52.502;16.732;2023-07-29T07:20:26;21.57;84.01
72320;SHT30;60269;52.502;16.732;2023-07-29T07:23:57;22.14;82.21
72320;SHT30;60269;52.502;16.732;2023-07-29T07:27:30;23.11;79.40
72320;SHT30;60269;52.502;16.732;2023-07-29T07:31:02;23.65;76.32
72320;SHT30;60269;52.502;16.732;2023-07-29T07:34:34;24.31;74.64
72320;SHT30;60269;52.502;16.732;2023-07-29T07:38:06;24.05;74.05
72320;SHT30;60269;52.502;16.732;2023-07-29T07:41:40;24.41;74.51
72320;SHT30;60269;52.502;16.732;2023-07-29T07:45:12;24.37;73.59
72320;SHT30;60269;52.502;16.732;2023-07-29T07:48:44;24.53;73.41
72320;SHT30;60269;52.502;16.732;2023-07-29T07:52:16;24.96;72.70
72320;SHT30;60269;52.502;16.732;2023-07-29T07:55:48;24.84;72.84
72320;SHT30;60269;52.502;16.732;2023-07-29T07:59:20;25.19;71.34
72320;SHT30;60269;52.502;16.732;2023-07-29T08:02:52;25.03;70.92
72320;SHT30;60269;52.502;16.732;2023-07-29T08:06:25;24.63;70.78
72320;SHT30;60269;52.502;16.732;2023-07-29T08:09:57;24.76;71.12
72320;SHT30;60269;52.502;16.732;2023-07-29T08:13:28;25.46;68.40
72320;SHT30;60269;52.502;16.732;2023-07-29T08:17:01;25.05;68.08
72320;SHT30;60269;52.502;16.732;2023-07-29T08:20:33;25.60;66.96
72320;SHT30;60269;52.502;16.732;2023-07-29T08:24:05;24.96;68.48
72320;SHT30;60269;52.502;16.732;2023-07-29T08:27:39;25.85;65.45
72320;SHT30;60269;52.502;16.732;2023-07-29T08:31:11;26.26;64.25
72320;SHT30;60269;52.502;16.732;2023-07-29T08:34:43;26.87;62.78
72320;SHT30;60269;52.502;16.732;2023-07-29T08:38:15;27.37;60.18
72320;SHT30;60269;52.502;16.732;2023-07-29T08:41:56;26.98;58.43
72320;SHT30;60269;52.502;16.732;2023-07-29T08:45:34;26.52;59.91
72320;SHT30;60269;52.502;16.732;2023-07-29T08:49:08;26.73;59.32
72320;SHT30;60269;52.502;16.732;2023-07-29T08:52:41;26.94;58.84
72320;SHT30;60269;52.502;16.732;2023-07-29T08:56:15;26.84;59.41
72320;SHT30;60269;52.502;16.732;2023-07-29T08:59:47;26.79;59.23
72320;SHT30;60269;52.502;16.732;2023-07-29T09:03:20;27.33;58.45
72320;SHT30;60269;52.502;16.732;2023-07-29T09:06:53;28.36;55.36
72320;SHT30;60269;52.502;16.732;2023-07-29T09:10:27;27.81;56.24
72320;SHT30;60269;52.502;16.732;2023-07-29T09:14:00;27.15;58.83
72320;SHT30;60269;52.502;16.732;2023-07-29T09:17:33;27.44;56.75
72320;SHT30;60269;52.502;16.732;2023-07-29T09:21:05;27.69;54.14
72320;SHT30;60269;52.502;16.732;2023-07-29T09:24:37;27.66;54.42
72320;SHT30;60269;52.502;16.732;2023-07-29T09:28:11;27.44;55.93
72320;SHT30;60269;52.502;16.732;2023-07-29T09:31:44;26.64;58.30
72320;SHT30;60269;52.502;16.732;2023-07-29T09:35:16;27.54;56.01
72320;SHT30;60269;52.502;16.732;2023-07-29T09:38:48;28.61;53.84
72320;SHT30;60269;52.502;16.732;2023-07-29T09:42:21;28.48;52.93
72320;SHT30;60269;52.502;16.732;2023-07-29T09:45:53;28.25;53.97
72320;SHT30;60269;52.502;16.732;2023-07-29T09:49:26;28.34;53.74
72320;SHT30;60269;52.502;16.732;2023-07-29T09:52:58;28.88;54.01
72320;SHT30;60269;52.502;16.732;2023-07-29T09:56:30;28.78;53.01
72320;SHT30;60269;52.502;16.732;2023-07-29T10:00:02;28.79;51.98
72320;SHT30;60269;52.502;16.732;2023-07-29T10:03:38;28.10;53.87
72320;SHT30;60269;52.502;16.732;2023-07-29T10:07:11;27.86;55.13
72320;SHT30;60269;52.502;16.732;2023-07-29T10:10:44;28.07;53.53
72320;SHT30;60269;52.502;16.732;2023-07-29T10:14:19;27.85;54.70
72320;SHT30;60269;52.502;16.732;2023-07-29T10:17:52;27.86;54.66
72320;SHT30;60269;52.502;16.732;2023-07-29T10:21:25;27.37;54.89
72320;SHT30;60269;52.502;16.732;2023-07-29T10:25:03;27.23;57.11
72320;SHT30;60269;52.502;16.732;2023-07-29T10:28:40;28.17;53.95
72320;SHT30;60269;52.502;16.732;2023-07-29T10:32:14;29.56;48.60
72320;SHT30;60269;52.502;16.732;2023-07-29T10:35:46;29.45;49.34
72320;SHT30;60269;52.502;16.732;2023-07-29T10:39:19;27.89;52.85
72320;SHT30;60269;52.502;16.732;2023-07-29T10:43:09;28.20;52.48
72320;SHT30;60269;52.502;16.732;2023-07-29T10:46:41;28.17;52.59
72320;SHT30;60269;52.502;16.732;2023-07-29T10:50:20;29.29;49.74
72320;SHT30;60269;52.502;16.732;2023-07-29T10:53:54;29.87;48.64
72320;SHT30;60269;52.502;16.732;2023-07-29T10:57:39;29.97;47.83
72320;SHT30;60269;52.502;16.732;2023-07-29T11:01:13;29.50;50.52
72320;SHT30;60269;52.502;16.732;2023-07-29T11:04:58;28.55;51.92
72320;SHT30;60269;52.502;16.732;2023-07-29T11:08:31;29.33;50.38
72320;SHT30;60269;52.502;16.732;2023-07-29T11:16:16;31.20;46.59
72320;SHT30;60269;52.502;16.732;2023-07-29T11:19:49;29.36;49.19
72320;SHT30;60269;52.502;16.732;2023-07-29T11:23:31;29.80;49.96
72320;SHT30;60269;52.502;16.732;2023-07-29T11:27:04;29.56;48.80
72320;SHT30;60269;52.502;16.732;2023-07-29T11:30:39;29.49;48.80
72320;SHT30;60269;52.502;16.732;2023-07-29T11:34:12;29.37;49.20
72320;SHT30;60269;52.502;16.732;2023-07-29T11:37:50;29.95;49.31
72320;SHT30;60269;52.502;16.732;2023-07-29T11:41:22;30.53;46.30
72320;SHT30;60269;52.502;16.732;2023-07-29T11:44:57;30.70;46.29
72320;SHT30;60269;52.502;16.732;2023-07-29T11:48:32;31.59;44.33
72320;SHT30;60269;52.502;16.732;2023-07-29T11:52:07;31.06;45.45
72320;SHT30;60269;52.502;16.732;2023-07-29T11:55:40;29.78;47.83
72320;SHT30;60269;52.502;16.732;2023-07-29T11:59:12;30.51;47.87
72320;SHT30;60269;52.502;16.732;2023-07-29T12:02:45;30.05;47.97
72320;SHT30;60269;52.502;16.732;2023-07-29T12:06:19;29.74;48.16
72320;SHT30;60269;52.502;16.732;2023-07-29T12:09:52;29.16;49.26
72320;SHT30;60269;52.502;16.732;2023-07-29T12:13:24;28.94;50.09
72320;SHT30;60269;52.502;16.732;2023-07-29T12:17:03;28.67;52.00
72320;SHT30;60269;52.502;16.732;2023-07-29T12:20:36;29.23;49.40
72320;SHT30;60269;52.502;16.732;2023-07-29T12:24:08;29.46;49.54
72320;SHT30;60269;52.502;16.732;2023-07-29T12:27:43;29.63;49.13
72320;SHT30;60269;52.502;16.732;2023-07-29T12:31:15;29.25;49.94
72320;SHT30;60269;52.502;16.732;2023-07-29T12:34:47;29.61;49.85
72320;SHT30;60269;52.502;16.732;2023-07-29T12:38:22;28.74;51.31
72320;SHT30;60269;52.502;16.732;2023-07-29T12:41:56;28.71;52.38
72320;SHT30;60269;52.502;16.732;2023-07-29T12:45:35;28.14;53.05
72320;SHT30;60269;52.502;16.732;2023-07-29T12:49:08;27.65;57.05
72320;SHT30;60269;52.502;16.732;2023-07-29T12:52:40;27.41;56.57
72320;SHT30;60269;52.502;16.732;2023-07-29T12:56:11;27.54;55.83
72320;SHT30;60269;52.502;16.732;2023-07-29T12:59:44;28.00;55.17
72320;SHT30;60269;52.502;16.732;2023-07-29T13:03:15;28.74;53.38
72320;SHT30;60269;52.502;16.732;2023-07-29T13:06:48;28.92;54.25
72320;SHT30;60269;52.502;16.732;2023-07-29T13:10:22;29.81;51.27
72320;SHT30;60269;52.502;16.732;2023-07-29T13:13:55;29.61;50.94
72320;SHT30;60269;52.502;16.732;2023-07-29T13:17:27;29.39;50.24
72320;SHT30;60269;52.502;16.732;2023-07-29T13:20:59;28.87;52.10
72320;SHT30;60269;52.502;16.732;2023-07-29T13:24:32;28.92;51.94
72320;SHT30;60269;52.502;16.732;2023-07-29T13:28:04;29.10;51.16
72320;SHT30;60269;52.502;16.732;2023-07-29T13:31:36;29.05;51.28
72320;SHT30;60269;52.502;16.732;2023-07-29T13:35:08;28.50;52.89
72320;SHT30;60269;52.502;16.732;2023-07-29T13:38:41;29.20;51.26
72320;SHT30;60269;52.502;16.732;2023-07-29T13:42:13;28.96;51.91
72320;SHT30;60269;52.502;16.732;2023-07-29T13:45:45;28.16;53.49
72320;SHT30;60269;52.502;16.732;2023-07-29T13:49:20;27.61;53.99
72320;SHT30;60269;52.502;16.732;2023-07-29T13:52:52;27.03;55.00
72320;SHT30;60269;52.502;16.732;2023-07-29T13:56:24;25.47;67.82
72320;SHT30;60269;52.502;16.732;2023-07-29T13:59:58;22.11;86.04
72320;SHT30;60269;52.502;16.732;2023-07-29T14:03:30;19.85;98.93
72320;SHT30;60269;52.502;16.732;2023-07-29T14:07:02;18.80;99.94
72320;SHT30;60269;52.502;16.732;2023-07-29T14:10:35;18.00;99.55
72320;SHT30;60269;52.502;16.732;2023-07-29T14:14:07;18.15;96.09
72320;SHT30;60269;52.502;16.732;2023-07-29T14:17:39;18.85;95.75
72320;SHT30;60269;52.502;16.732;2023-07-29T14:21:11;20.52;90.63
72320;SHT30;60269;52.502;16.732;2023-07-29T14:24:43;22.34;86.70
72320;SHT30;60269;52.502;16.732;2023-07-29T14:28:15;22.52;78.58
72320;SHT30;60269;52.502;16.732;2023-07-29T14:31:47;22.99;76.92
72320;SHT30;60269;52.502;16.732;2023-07-29T14:35:19;22.53;79.15
72320;SHT30;60269;52.502;16.732;2023-07-29T14:38:52;22.41;79.13
72320;SHT30;60269;52.502;16.732;2023-07-29T14:42:24;24.12;74.02
72320;SHT30;60269;52.502;16.732;2023-07-29T14:45:56;25.78;68.00
72320;SHT30;60269;52.502;16.732;2023-07-29T14:49:29;27.06;64.11
72320;SHT30;60269;52.502;16.732;2023-07-29T14:53:01;28.02;60.84
72320;SHT30;60269;52.502;16.732;2023-07-29T14:56:33;28.25;62.45
72320;SHT30;60269;52.502;16.732;2023-07-29T15:00:05;29.34;59.79
72320;SHT30;60269;52.502;16.732;2023-07-29T15:03:37;29.31;58.66
72320;SHT30;60269;52.502;16.732;2023-07-29T15:07:10;29.61;59.19
72320;SHT30;60269;52.502;16.732;2023-07-29T15:10:46;29.53;59.13
72320;SHT30;60269;52.502;16.732;2023-07-29T15:14:19;28.43;60.82
72320;SHT30;60269;52.502;16.732;2023-07-29T15:17:50;27.23;66.03
72320;SHT30;60269;52.502;16.732;2023-07-29T15:21:22;26.19;69.98
72320;SHT30;60269;52.502;16.732;2023-07-29T15:24:55;25.16;74.08
72320;SHT30;60269;52.502;16.732;2023-07-29T15:28:27;24.68;75.73
72320;SHT30;60269;52.502;16.732;2023-07-29T15:31:58;24.43;78.26
72320;SHT30;60269;52.502;16.732;2023-07-29T15:35:36;24.23;78.75
72320;SHT30;60269;52.502;16.732;2023-07-29T15:39:09;23.78;81.33
72320;SHT30;60269;52.502;16.732;2023-07-29T15:42:42;23.76;82.95
72320;SHT30;60269;52.502;16.732;2023-07-29T15:46:13;23.70;83.25
72320;SHT30;60269;52.502;16.732;2023-07-29T15:49:46;21.76;74.53
72320;SHT30;60269;52.502;16.732;2023-07-29T15:53:18;20.31;79.34
72320;SHT30;60269;52.502;16.732;2023-07-29T15:56:50;19.48;81.07
72320;SHT30;60269;52.502;16.732;2023-07-29T16:00:22;19.47;82.29
72320;SHT30;60269;52.502;16.732;2023-07-29T16:04:00;19.61;84.80
72320;SHT30;60269;52.502;16.732;2023-07-29T16:07:33;19.78;85.09
72320;SHT30;60269;52.502;16.732;2023-07-29T16:11:06;19.76;86.58
72320;SHT30;60269;52.502;16.732;2023-07-29T16:14:38;19.79;86.94
72320;SHT30;60269;52.502;16.732;2023-07-29T16:18:11;19.78;84.13
72320;SHT30;60269;52.502;16.732;2023-07-29T16:21:46;18.24;90.22
72320;SHT30;60269;52.502;16.732;2023-07-29T16:25:20;17.62;92.56
72320;SHT30;60269;52.502;16.732;2023-07-29T16:28:52;17.45;94.72
72320;SHT30;60269;52.502;16.732;2023-07-29T16:32:25;17.36;95.70
72320;SHT30;60269;52.502;16.732;2023-07-29T16:35:57;17.23;97.38
72320;SHT30;60269;52.502;16.732;2023-07-29T16:39:29;17.11;98.73
72320;SHT30;60269;52.502;16.732;2023-07-29T16:43:01;17.00;99.43
72320;SHT30;60269;52.502;16.732;2023-07-29T16:46:36;16.89;99.99
72320;SHT30;60269;52.502;16.732;2023-07-29T16:50:12;16.96;99.99
72320;SHT30;60269;52.502;16.732;2023-07-29T16:53:44;16.96;99.99
72320;SHT30;60269;52.502;16.732;2023-07-29T16:57:16;17.05;99.99
72320;SHT30;60269;52.502;16.732;2023-07-29T17:00:49;17.15;99.99
72320;SHT30;60269;52.502;16.732;2023-07-29T17:04:21;17.28;99.99
72320;SHT30;60269;52.502;16.732;2023-07-29T17:07:53;17.39;99.99
72320;SHT30;60269;52.502;16.732;2023-07-29T17:11:25;17.50;99.99
72320;SHT30;60269;52.502;16.732;2023-07-29T17:14:59;17.54;99.99
72320;SHT30;60269;52.502;16.732;2023-07-29T17:18:33;17.67;99.99
72320;SHT30;60269;52.502;16.732;2023-07-29T17:22:11;17.67;99.99
72320;SHT30;60269;52.502;16.732;2023-07-29T17:25:43;17.73;99.99
72320;SHT30;60269;52.502;16.732;2023-07-29T17:29:16;17.73;99.99
72320;SHT30;60269;52.502;16.732;2023-07-29T17:32:48;17.77;99.99
72320;SHT30;60269;52.502;16.732;2023-07-29T17:36:20;17.89;99.99
72320;SHT30;60269;52.502;16.732;2023-07-29T17:39:52;17.86;99.99
72320;SHT30;60269;52.502;16.732;2023-07-29T17:43:24;17.81;99.99
72320;SHT30;60269;52.502;16.732;2023-07-29T17:46:56;17.77;99.99
72320;SHT30;60269;52.502;16.732;2023-07-29T17:50:29;17.67;99.99
72320;SHT30;60269;52.502;16.732;2023-07-29T17:54:04;17.69;99.99
72320;SHT30;60269;52.502;16.732;2023-07-29T17:57:36;17.63;99.99
72320;SHT30;60269;52.502;16.732;2023-07-29T18:01:09;17.66;99.99
72320;SHT30;60269;52.502;16.732;2023-07-29T18:04:41;17.63;99.99
72320;SHT30;60269;52.502;16.732;2023-07-29T18:08:14;17.66;99.99
72320;SHT30;60269;52.502;16.732;2023-07-29T18:11:46;17.76;99.99
72320;SHT30;60269;52.502;16.732;2023-07-29T18:15:18;17.84;99.90
72320;SHT30;60269;52.502;16.732;2023-07-29T18:18:50;17.84;99.95
72320;SHT30;60269;52.502;16.732;2023-07-29T18:22:25;17.79;99.99
72320;SHT30;60269;52.502;16.732;2023-07-29T18:25:58;17.89;99.99
72320;SHT30;60269;52.502;16.732;2023-07-29T18:29:32;17.84;99.99
72320;SHT30;60269;52.502;16.732;2023-07-29T18:33:04;17.70;99.99
72320;SHT30;60269;52.502;16.732;2023-07-29T18:36:37;17.59;99.99
72320;SHT30;60269;52.502;16.732;2023-07-29T18:40:10;17.47;99.99
72320;SHT30;60269;52.502;16.732;2023-07-29T18:43:42;17.46;99.99
72320;SHT30;60269;52.502;16.732;2023-07-29T18:47:17;17.40;99.99
72320;SHT30;60269;52.502;16.732;2023-07-29T18:50:49;17.36;99.99
72320;SHT30;60269;52.502;16.732;2023-07-29T18:54:21;17.33;99.99
72320;SHT30;60269;52.502;16.732;2023-07-29T18:57:53;17.28;99.99
72320;SHT30;60269;52.502;16.732;2023-07-29T19:01:26;17.26;99.99
72320;SHT30;60269;52.502;16.732;2023-07-29T19:04:58;17.22;99.99
72320;SHT30;60269;52.502;16.732;2023-07-29T19:08:30;17.18;99.99
72320;SHT30;60269;52.502;16.732;2023-07-29T19:12:02;17.15;99.99
72320;SHT30;60269;52.502;16.732;2023-07-29T19:15:34;17.18;99.99
72320;SHT30;60269;52.502;16.732;2023-07-29T19:19:09;17.11;99.99
72320;SHT30;60269;52.502;16.732;2023-07-29T19:22:41;17.07;99.99
72320;SHT30;60269;52.502;16.732;2023-07-29T19:26:13;17.14;99.99
72320;SHT30;60269;52.502;16.732;2023-07-29T19:29:50;17.19;99.99
72320;SHT30;60269;52.502;16.732;2023-07-29T19:33:22;17.23;99.99
72320;SHT30;60269;52.502;16.732;2023-07-29T19:36:54;17.25;99.99
72320;SHT30;60269;52.502;16.732;2023-07-29T19:40:27;17.21;99.99
72320;SHT30;60269;52.502;16.732;2023-07-29T19:44:00;17.15;99.99
72320;SHT30;60269;52.502;16.732;2023-07-29T19:47:52;17.08;99.99
72320;SHT30;60269;52.502;16.732;2023-07-29T19:51:25;16.92;99.99
72320;SHT30;60269;52.502;16.732;2023-07-29T19:54:56;16.95;99.99
72320;SHT30;60269;52.502;16.732;2023-07-29T19:58:28;16.98;99.99
72320;SHT30;60269;52.502;16.732;2023-07-29T20:02:00;16.92;99.99
72320;SHT30;60269;52.502;16.732;2023-07-29T20:05:32;16.92;99.99
72320;SHT30;60269;52.502;16.732;2023-07-29T20:09:04;16.85;99.99
72320;SHT30;60269;52.502;16.732;2023-07-29T20:12:36;16.78;99.99
72320;SHT30;60269;52.502;16.732;2023-07-29T20:16:08;16.78;99.99
72320;SHT30;60269;52.502;16.732;2023-07-29T20:19:40;16.74;99.99
72320;SHT30;60269;52.502;16.732;2023-07-29T20:23:12;16.68;99.99
72320;SHT30;60269;52.502;16.732;2023-07-29T20:26:44;16.68;99.99
72320;SHT30;60269;52.502;16.732;2023-07-29T20:30:16;16.63;99.99
72320;SHT30;60269;52.502;16.732;2023-07-29T20:33:48;16.70;99.99
72320;SHT30;60269;52.502;16.732;2023-07-29T20:37:20;16.65;99.99
72320;SHT30;60269;52.502;16.732;2023-07-29T20:40:56;16.64;99.99
72320;SHT30;60269;52.502;16.732;2023-07-29T20:44:28;16.63;99.99
72320;SHT30;60269;52.502;16.732;2023-07-29T20:48:00;16.63;99.99
72320;SHT30;60269;52.502;16.732;2023-07-29T20:51:32;16.63;99.99
72320;SHT30;60269;52.502;16.732;2023-07-29T20:55:05;16.65;99.99
72320;SHT30;60269;52.502;16.732;2023-07-29T20:58:37;16.64;99.99
72320;SHT30;60269;52.502;16.732;2023-07-29T21:02:09;16.61;99.99
72320;SHT30;60269;52.502;16.732;2023-07-29T21:05:41;16.61;99.99
72320;SHT30;60269;52.502;16.732;2023-07-29T21:09:15;16.68;99.99
72320;SHT30;60269;52.502;16.732;2023-07-29T21:12:47;16.64;99.99
72320;SHT30;60269;52.502;16.732;2023-07-29T21:16:20;16.56;99.99
72320;SHT30;60269;52.502;16.732;2023-07-29T21:19:52;16.54;99.99
72320;SHT30;60269;52.502;16.732;2023-07-29T21:23:24;16.53;99.99
72320;SHT30;60269;52.502;16.732;2023-07-29T21:26:56;16.54;99.99
72320;SHT30;60269;52.502;16.732;2023-07-29T21:30:32;16.52;99.99
72320;SHT30;60269;52.502;16.732;2023-07-29T21:34:04;16.53;99.99
72320;SHT30;60269;52.502;16.732;2023-07-29T21:37:36;16.56;99.99
72320;SHT30;60269;52.502;16.732;2023-07-29T21:41:08;16.56;99.99
72320;SHT30;60269;52.502;16.732;2023-07-29T21:44:41;16.57;99.99
72320;SHT30;60269;52.502;16.732;2023-07-29T21:48:13;16.61;99.99
72320;SHT30;60269;52.502;16.732;2023-07-29T21:51:45;16.63;99.99
72320;SHT30;60269;52.502;16.732;2023-07-29T21:55:17;16.60;99.99
72320;SHT30;60269;52.502;16.732;2023-07-29T21:58:50;16.50;99.99
72320;SHT30;60269;52.502;16.732;2023-07-29T22:02:22;16.61;99.99
72320;SHT30;60269;52.502;16.732;2023-07-29T22:06:01;16.59;99.99
72320;SHT30;60269;52.502;16.732;2023-07-29T22:09:33;16.57;99.99
72320;SHT30;60269;52.502;16.732;2023-07-29T22:13:05;16.52;99.99